Bookmark and Share
Track history (hours):
 

Linda Moran

More information available from US FCC via Universal Licensing System and Coast Guard Vessel Documentation Center.

Last reported at 2014-Apr-17 20:33 UTC. Time now 2014-Apr-21 07:25 UTC.
Position N 30°03' W 090°33'.

Length 156 m; draft 8.2 m.

Type: Towing. MMSI: 367349860.

NotesDate/timePositionNaut miles runAvg speedWind from/ knotsBaromVisibWave heightAir tempDewpointWater temp
2014-Apr-17 20:33N 30°03' W 090°33'15 1.5
2014-Apr-17 10:13N 29°60' W 090°50'0 0.0
2014-Apr-17 09:06N 29°60' W 090°50'0 0.0
2014-Apr-17 08:25N 29°60' W 090°50'0 0.0
2014-Apr-17 06:22N 29°60' W 090°50'0 0.0
2014-Apr-17 05:30N 29°60' W 090°50'0 0.0
2014-Apr-17 04:26N 29°60' W 090°50'0 0.0
2014-Apr-17 03:33N 29°60' W 090°50'0 0.0
2014-Apr-17 01:33N 29°60' W 090°50'1 1.0
2014-Apr-17 00:28N 29°59' W 090°50'6 6.3
2014-Apr-16 23:33N 30°01' W 090°43'1 0.1
2014-Apr-16 12:05N 30°02' W 090°42'0 0.0
2014-Apr-16 11:08N 30°02' W 090°42'0 0.0
2014-Apr-16 10:32N 30°02' W 090°42'0 0.0
2014-Apr-16 09:05N 30°02' W 090°42'0 0.0
2014-Apr-16 08:32N 30°02' W 090°42'0 0.0
2014-Apr-16 07:14N 30°02' W 090°42'0 0.0
2014-Apr-16 06:20N 30°02' W 090°42'0 0.0
2014-Apr-16 04:17N 30°02' W 090°42'0 0.0
2014-Apr-16 03:32N 30°02' W 090°42'0 0.0
2014-Apr-16 02:29N 30°02' W 090°42'0 0.0
2014-Apr-16 01:32N 30°02' W 090°42'0 0.0
2014-Apr-16 00:29N 30°02' W 090°42'0 0.0
2014-Apr-15 23:29N 30°02' W 090°42'0 0.0
2014-Apr-15 07:32N 30°02' W 090°42'0 0.0
2014-Apr-15 06:32N 30°02' W 090°42'0 0.0
2014-Apr-15 05:32N 30°02' W 090°42'9 0.6
2014-Apr-14 13:33N 30°03' W 090°32'9 0.2
2014-Apr-12 16:33N 29°57' W 090°23'10 9.9
2014-Apr-12 15:33N 30°03' W 090°32'13 1.8
2014-Apr-12 08:32N 30°01' W 090°47'3 0.1
2014-Apr-11 12:18N 29°60' W 090°50'4 3.6
2014-Apr-11 11:19N 30°01' W 090°46'4 5.1
2014-Apr-11 10:33N 30°02' W 090°42'0 0.0
2014-Apr-11 09:28N 30°02' W 090°42'0 0.0
2014-Apr-11 08:31N 30°02' W 090°42'0 0.0
2014-Apr-11 07:31N 30°02' W 090°42'0 0.0
2014-Apr-11 06:31N 30°02' W 090°42'0 0.0
2014-Apr-11 05:28N 30°02' W 090°42'0 0.0
2014-Apr-11 04:31N 30°02' W 090°42'0 0.0
2014-Apr-11 03:31N 30°02' W 090°42'0 0.0
2014-Apr-11 02:31N 30°02' W 090°42'0 0.0
2014-Apr-11 01:25N 30°02' W 090°42'0 0.0
2014-Apr-11 00:31N 30°02' W 090°42'0 0.0
2014-Apr-10 23:31N 30°02' W 090°42'0 0.0
2014-Apr-10 12:19N 30°02' W 090°42'0 0.0
2014-Apr-10 11:28N 30°02' W 090°42'0 0.0
2014-Apr-10 10:22N 30°02' W 090°42'0 0.0
2014-Apr-10 09:31N 30°02' W 090°42'0 0.0
2014-Apr-10 08:28N 30°02' W 090°42'0 0.0
2014-Apr-10 07:31N 30°02' W 090°42'0 0.0
2014-Apr-10 06:28N 30°02' W 090°42'0 0.0
2014-Apr-10 05:31N 30°02' W 090°42'0 0.0
2014-Apr-10 04:28N 30°02' W 090°42'0 0.0
2014-Apr-10 03:31N 30°02' W 090°42'0 0.0
2014-Apr-10 02:28N 30°02' W 090°42'0 0.0
2014-Apr-10 01:25N 30°02' W 090°42'0 0.0
2014-Apr-10 00:28N 30°02' W 090°42'0 0.0
2014-Apr-09 23:19N 30°02' W 090°42'0 0.0
2014-Apr-09 12:16N 30°02' W 090°42'0 0.0
2014-Apr-09 11:31N 30°02' W 090°42'0 0.0
2014-Apr-09 10:31N 30°02' W 090°42'0 0.0
2014-Apr-09 09:28N 30°02' W 090°42'0 0.0
2014-Apr-09 08:28N 30°02' W 090°42'0 0.0
2014-Apr-09 07:28N 30°02' W 090°42'0 0.0
2014-Apr-09 06:31N 30°02' W 090°42'0 0.0
2014-Apr-09 05:25N 30°02' W 090°42'0 0.0
2014-Apr-09 04:28N 30°02' W 090°42'0 0.0
2014-Apr-09 03:22N 30°02' W 090°42'0 0.0
2014-Apr-09 02:28N 30°02' W 090°42'0 0.0
2014-Apr-09 01:31N 30°02' W 090°42'0 0.0
2014-Apr-09 00:22N 30°02' W 090°42'0 0.0
2014-Apr-08 23:31N 30°02' W 090°42'0 0.0
2014-Apr-08 22:25N 30°02' W 090°42'0 0.0
2014-Apr-08 11:31N 30°02' W 090°42'0 0.0
2014-Apr-08 10:31N 30°02' W 090°42'0 0.0
2014-Apr-08 09:28N 30°02' W 090°42'0 0.0
2014-Apr-08 08:28N 30°02' W 090°42'0 0.0
2014-Apr-08 07:31N 30°02' W 090°42'0 0.0
2014-Apr-08 06:25N 30°02' W 090°42'0 0.0
2014-Apr-08 05:28N 30°02' W 090°42'0 0.0
2014-Apr-08 04:07N 30°02' W 090°42'0 0.0
2014-Apr-08 03:28N 30°02' W 090°42'0 0.0
2014-Apr-08 02:28N 30°02' W 090°42'0 0.0
2014-Apr-08 01:31N 30°02' W 090°42'0 0.0
2014-Apr-08 00:16N 30°02' W 090°42'0 0.0
2014-Apr-07 23:31N 30°02' W 090°42'  

Dump ship's entire track history

sailing weather and tide predictions

Linda Moran — WDE4187 — position and weather